Weather at Pista Coahuila

Public forecast

Using degrees Celsius for public forecast. Weather courtesy of forecast.io.

Closest aviation weather report (METAR) to Pista Coahuila

Report is more than 2 hours old.

Closest report is General Rodolfo Sánchez Taboada International Airport, 25.4 nm (47.1 km) NNW. Retrieved 2020/12/03 03:40 UTC (3 hours ago):

MMML 030340Z 33009KT 10SM SKC 14/M15 A3018 RMK ISOL CI

Closest aviation forecast (TAF) to Pista Coahuila

Closest forecast is General Rodolfo Sánchez Taboada International Airport, 25.4 nm (47.1 km) NNW. Retrieved 2020/12/03 06:32 UTC (17 minutes ago):

TAF MMML 030322Z 0306/0406 36005KT P6SM SKC FM031800 36010KT P6SM SCT250 FM040500 02005KT P6SM SKC